sensor_id;sensor_type;location;lat;lon;timestamp;P1;durP1;ratioP1;P2;durP2;ratioP2
28174;SDS011;59417;44.788;10.334;2023-05-10T00:00:53;11.48;;;8.65;;
28174;SDS011;59417;44.788;10.334;2023-05-10T00:03:19;10.90;;;9.25;;
28174;SDS011;59417;44.788;10.334;2023-05-10T00:05:44;12.00;;;9.05;;
28174;SDS011;59417;44.788;10.334;2023-05-10T00:08:10;12.20;;;8.63;;
28174;SDS011;59417;44.788;10.334;2023-05-10T00:10:36;9.77;;;8.07;;
28174;SDS011;59417;44.788;10.334;2023-05-10T00:13:02;9.75;;;8.02;;
28174;SDS011;59417;44.788;10.334;2023-05-10T00:15:28;10.68;;;7.70;;
28174;SDS011;59417;44.788;10.334;2023-05-10T00:17:55;10.73;;;8.55;;
28174;SDS011;59417;44.788;10.334;2023-05-10T00:20:21;9.90;;;8.55;;
28174;SDS011;59417;44.788;10.334;2023-05-10T00:22:47;10.27;;;8.27;;
28174;SDS011;59417;44.788;10.334;2023-05-10T00:25:13;11.88;;;8.40;;
28174;SDS011;59417;44.788;10.334;2023-05-10T00:27:38;10.73;;;8.85;;
28174;SDS011;59417;44.788;10.334;2023-05-10T00:30:04;10.75;;;8.73;;
28174;SDS011;59417;44.788;10.334;2023-05-10T00:32:31;10.73;;;8.68;;
28174;SDS011;59417;44.788;10.334;2023-05-10T00:34:57;13.70;;;9.95;;
28174;SDS011;59417;44.788;10.334;2023-05-10T00:37:22;12.73;;;10.05;;
28174;SDS011;59417;44.788;10.334;2023-05-10T00:39:48;11.32;;;9.60;;
28174;SDS011;59417;44.788;10.334;2023-05-10T00:42:15;11.55;;;9.93;;
28174;SDS011;59417;44.788;10.334;2023-05-10T00:44:41;11.50;;;10.20;;
28174;SDS011;59417;44.788;10.334;2023-05-10T00:47:07;10.73;;;9.48;;
28174;SDS011;59417;44.788;10.334;2023-05-10T00:49:34;12.95;;;10.35;;
28174;SDS011;59417;44.788;10.334;2023-05-10T00:52:00;16.08;;;10.82;;
28174;SDS011;59417;44.788;10.334;2023-05-10T00:54:27;16.05;;;11.52;;
28174;SDS011;59417;44.788;10.334;2023-05-10T00:56:52;14.65;;;11.30;;
28174;SDS011;59417;44.788;10.334;2023-05-10T00:59:18;14.52;;;10.88;;
28174;SDS011;59417;44.788;10.334;2023-05-10T01:01:45;13.50;;;11.25;;
28174;SDS011;59417;44.788;10.334;2023-05-10T01:04:11;11.80;;;10.57;;
28174;SDS011;59417;44.788;10.334;2023-05-10T01:06:38;15.32;;;11.35;;
28174;SDS011;59417;44.788;10.334;2023-05-10T01:09:05;19.42;;;12.30;;
28174;SDS011;59417;44.788;10.334;2023-05-10T01:11:32;15.45;;;12.05;;
28174;SDS011;59417;44.788;10.334;2023-05-10T01:14:01;14.80;;;12.20;;
28174;SDS011;59417;44.788;10.334;2023-05-10T01:16:27;13.45;;;12.02;;
28174;SDS011;59417;44.788;10.334;2023-05-10T01:27:17;18.13;;;12.07;;
28174;SDS011;59417;44.788;10.334;2023-05-10T01:37:50;14.77;;;11.75;;
28174;SDS011;59417;44.788;10.334;2023-05-10T01:43:08;17.35;;;12.77;;
28174;SDS011;59417;44.788;10.334;2023-05-10T01:48:20;16.25;;;12.32;;
28174;SDS011;59417;44.788;10.334;2023-05-10T01:50:48;15.85;;;12.32;;
28174;SDS011;59417;44.788;10.334;2023-05-10T01:53:17;15.20;;;12.23;;
28174;SDS011;59417;44.788;10.334;2023-05-10T01:55:46;12.47;;;11.10;;
28174;SDS011;59417;44.788;10.334;2023-05-10T01:58:17;13.57;;;12.10;;
28174;SDS011;59417;44.788;10.334;2023-05-10T02:00:46;12.98;;;11.52;;
28174;SDS011;59417;44.788;10.334;2023-05-10T02:03:14;13.18;;;11.68;;
28174;SDS011;59417;44.788;10.334;2023-05-10T02:05:41;15.40;;;11.23;;
28174;SDS011;59417;44.788;10.334;2023-05-10T02:08:10;12.65;;;11.23;;
28174;SDS011;59417;44.788;10.334;2023-05-10T02:10:37;17.10;;;11.60;;
28174;SDS011;59417;44.788;10.334;2023-05-10T02:13:06;14.40;;;12.32;;
28174;SDS011;59417;44.788;10.334;2023-05-10T02:15:34;17.75;;;12.65;;
28174;SDS011;59417;44.788;10.334;2023-05-10T02:18:01;14.35;;;11.48;;
28174;SDS011;59417;44.788;10.334;2023-05-10T02:20:28;12.45;;;10.35;;
28174;SDS011;59417;44.788;10.334;2023-05-10T02:22:56;14.77;;;10.82;;
28174;SDS011;59417;44.788;10.334;2023-05-10T02:25:23;14.80;;;11.00;;
28174;SDS011;59417;44.788;10.334;2023-05-10T02:27:51;12.18;;;10.32;;
28174;SDS011;59417;44.788;10.334;2023-05-10T02:30:19;13.82;;;9.88;;
28174;SDS011;59417;44.788;10.334;2023-05-10T02:32:45;13.32;;;10.05;;
28174;SDS011;59417;44.788;10.334;2023-05-10T02:35:12;11.57;;;9.10;;
28174;SDS011;59417;44.788;10.334;2023-05-10T02:37:38;11.05;;;9.82;;
28174;SDS011;59417;44.788;10.334;2023-05-10T02:40:05;9.75;;;8.52;;
28174;SDS011;59417;44.788;10.334;2023-05-10T02:42:33;12.48;;;9.38;;
28174;SDS011;59417;44.788;10.334;2023-05-10T02:45:07;9.57;;;8.30;;
28174;SDS011;59417;44.788;10.334;2023-05-10T02:47:37;10.13;;;8.15;;
28174;SDS011;59417;44.788;10.334;2023-05-10T02:50:03;9.07;;;8.10;;
28174;SDS011;59417;44.788;10.334;2023-05-10T02:52:36;9.05;;;7.80;;
28174;SDS011;59417;44.788;10.334;2023-05-10T02:55:05;11.98;;;7.90;;
28174;SDS011;59417;44.788;10.334;2023-05-10T02:57:35;10.15;;;7.78;;
28174;SDS011;59417;44.788;10.334;2023-05-10T03:00:06;9.68;;;7.18;;
28174;SDS011;59417;44.788;10.334;2023-05-10T03:02:33;13.70;;;7.22;;
28174;SDS011;59417;44.788;10.334;2023-05-10T03:05:21;10.05;;;7.03;;
28174;SDS011;59417;44.788;10.334;2023-05-10T03:07:46;8.95;;;7.05;;
28174;SDS011;59417;44.788;10.334;2023-05-10T03:10:12;8.75;;;6.70;;
28174;SDS011;59417;44.788;10.334;2023-05-10T03:15:33;9.52;;;6.97;;
28174;SDS011;59417;44.788;10.334;2023-05-10T03:18:21;9.20;;;6.28;;
28174;SDS011;59417;44.788;10.334;2023-05-10T03:25:51;9.32;;;7.05;;
28174;SDS011;59417;44.788;10.334;2023-05-10T03:28:17;8.15;;;7.07;;
28174;SDS011;59417;44.788;10.334;2023-05-10T03:30:44;7.95;;;7.05;;
28174;SDS011;59417;44.788;10.334;2023-05-10T03:33:11;7.30;;;6.60;;
28174;SDS011;59417;44.788;10.334;2023-05-10T03:35:41;10.48;;;6.53;;
28174;SDS011;59417;44.788;10.334;2023-05-10T03:38:07;8.88;;;6.93;;
28174;SDS011;59417;44.788;10.334;2023-05-10T03:40:32;7.53;;;6.75;;
28174;SDS011;59417;44.788;10.334;2023-05-10T03:42:58;8.88;;;6.43;;
28174;SDS011;59417;44.788;10.334;2023-05-10T03:45:25;7.10;;;6.40;;
28174;SDS011;59417;44.788;10.334;2023-05-10T03:47:50;6.78;;;6.10;;
28174;SDS011;59417;44.788;10.334;2023-05-10T03:50:16;8.77;;;6.65;;
28174;SDS011;59417;44.788;10.334;2023-05-10T03:52:44;7.60;;;6.72;;
28174;SDS011;59417;44.788;10.334;2023-05-10T03:55:10;7.15;;;6.47;;
28174;SDS011;59417;44.788;10.334;2023-05-10T03:57:36;8.50;;;6.90;;
28174;SDS011;59417;44.788;10.334;2023-05-10T04:00:03;7.30;;;6.60;;
28174;SDS011;59417;44.788;10.334;2023-05-10T04:02:39;6.20;;;5.40;;
28174;SDS011;59417;44.788;10.334;2023-05-10T04:05:08;7.03;;;6.32;;
28174;SDS011;59417;44.788;10.334;2023-05-10T04:07:35;6.45;;;5.65;;
28174;SDS011;59417;44.788;10.334;2023-05-10T04:10:01;9.02;;;6.43;;
28174;SDS011;59417;44.788;10.334;2023-05-10T04:12:28;6.53;;;5.68;;
28174;SDS011;59417;44.788;10.334;2023-05-10T04:14:53;6.28;;;5.68;;
28174;SDS011;59417;44.788;10.334;2023-05-10T04:17:19;7.03;;;4.80;;
28174;SDS011;59417;44.788;10.334;2023-05-10T04:19:46;8.15;;;5.75;;
28174;SDS011;59417;44.788;10.334;2023-05-10T04:22:12;7.10;;;5.45;;
28174;SDS011;59417;44.788;10.334;2023-05-10T04:24:37;6.85;;;5.25;;
28174;SDS011;59417;44.788;10.334;2023-05-10T04:27:03;6.50;;;5.57;;
28174;SDS011;59417;44.788;10.334;2023-05-10T04:29:29;5.90;;;5.40;;
28174;SDS011;59417;44.788;10.334;2023-05-10T04:31:55;6.40;;;5.40;;
28174;SDS011;59417;44.788;10.334;2023-05-10T04:34:21;8.43;;;5.90;;
28174;SDS011;59417;44.788;10.334;2023-05-10T04:36:48;6.55;;;5.55;;
28174;SDS011;59417;44.788;10.334;2023-05-10T04:39:13;7.72;;;5.97;;
28174;SDS011;59417;44.788;10.334;2023-05-10T04:41:39;7.32;;;6.15;;
28174;SDS011;59417;44.788;10.334;2023-05-10T04:44:05;8.07;;;6.55;;
28174;SDS011;59417;44.788;10.334;2023-05-10T04:46:30;6.75;;;5.93;;
28174;SDS011;59417;44.788;10.334;2023-05-10T04:48:56;7.28;;;6.15;;
28174;SDS011;59417;44.788;10.334;2023-05-10T04:51:21;8.82;;;5.80;;
28174;SDS011;59417;44.788;10.334;2023-05-10T04:53:47;7.10;;;6.40;;
28174;SDS011;59417;44.788;10.334;2023-05-10T04:56:13;8.05;;;5.57;;
28174;SDS011;59417;44.788;10.334;2023-05-10T04:58:38;9.00;;;6.70;;
28174;SDS011;59417;44.788;10.334;2023-05-10T05:01:05;8.10;;;7.07;;
28174;SDS011;59417;44.788;10.334;2023-05-10T05:03:34;7.53;;;6.25;;
28174;SDS011;59417;44.788;10.334;2023-05-10T05:06:00;7.97;;;6.60;;
28174;SDS011;59417;44.788;10.334;2023-05-10T05:08:26;8.20;;;6.70;;
28174;SDS011;59417;44.788;10.334;2023-05-10T05:10:52;7.88;;;6.97;;
28174;SDS011;59417;44.788;10.334;2023-05-10T05:13:17;11.13;;;6.63;;
28174;SDS011;59417;44.788;10.334;2023-05-10T05:15:43;7.20;;;5.88;;
28174;SDS011;59417;44.788;10.334;2023-05-10T05:18:09;8.30;;;5.63;;
28174;SDS011;59417;44.788;10.334;2023-05-10T05:20:35;7.30;;;5.72;;
28174;SDS011;59417;44.788;10.334;2023-05-10T05:23:01;7.50;;;6.53;;
28174;SDS011;59417;44.788;10.334;2023-05-10T05:25:27;8.18;;;7.03;;
28174;SDS011;59417;44.788;10.334;2023-05-10T05:27:53;6.93;;;6.20;;
28174;SDS011;59417;44.788;10.334;2023-05-10T05:30:19;7.90;;;6.05;;
28174;SDS011;59417;44.788;10.334;2023-05-10T05:32:44;9.00;;;7.63;;
28174;SDS011;59417;44.788;10.334;2023-05-10T05:35:10;7.63;;;5.75;;
28174;SDS011;59417;44.788;10.334;2023-05-10T05:37:36;7.95;;;6.25;;
28174;SDS011;59417;44.788;10.334;2023-05-10T05:40:02;7.15;;;6.10;;
28174;SDS011;59417;44.788;10.334;2023-05-10T05:42:28;8.50;;;7.53;;
28174;SDS011;59417;44.788;10.334;2023-05-10T05:44:55;7.70;;;6.82;;
28174;SDS011;59417;44.788;10.334;2023-05-10T05:47:21;8.95;;;6.15;;
28174;SDS011;59417;44.788;10.334;2023-05-10T05:49:47;7.25;;;6.28;;
28174;SDS011;59417;44.788;10.334;2023-05-10T05:52:12;9.38;;;6.00;;
28174;SDS011;59417;44.788;10.334;2023-05-10T05:54:38;6.80;;;6.00;;
28174;SDS011;59417;44.788;10.334;2023-05-10T05:57:04;9.98;;;7.00;;
28174;SDS011;59417;44.788;10.334;2023-05-10T05:59:30;6.75;;;6.05;;
28174;SDS011;59417;44.788;10.334;2023-05-10T06:01:55;6.65;;;5.95;;
28174;SDS011;59417;44.788;10.334;2023-05-10T06:04:21;8.23;;;6.75;;
28174;SDS011;59417;44.788;10.334;2023-05-10T06:06:47;8.50;;;6.15;;
28174;SDS011;59417;44.788;10.334;2023-05-10T06:09:12;6.68;;;6.07;;
28174;SDS011;59417;44.788;10.334;2023-05-10T06:11:38;8.18;;;5.63;;
28174;SDS011;59417;44.788;10.334;2023-05-10T06:14:04;8.48;;;6.10;;
28174;SDS011;59417;44.788;10.334;2023-05-10T06:16:32;6.70;;;5.88;;
28174;SDS011;59417;44.788;10.334;2023-05-10T06:18:58;8.57;;;6.75;;
28174;SDS011;59417;44.788;10.334;2023-05-10T06:21:23;7.50;;;6.65;;
28174;SDS011;59417;44.788;10.334;2023-05-10T06:23:49;7.25;;;6.38;;
28174;SDS011;59417;44.788;10.334;2023-05-10T06:26:15;7.80;;;7.03;;
28174;SDS011;59417;44.788;10.334;2023-05-10T06:28:40;7.13;;;6.43;;
28174;SDS011;59417;44.788;10.334;2023-05-10T06:31:06;6.93;;;6.20;;
28174;SDS011;59417;44.788;10.334;2023-05-10T06:33:32;10.18;;;7.38;;
28174;SDS011;59417;44.788;10.334;2023-05-10T06:35:58;9.40;;;6.45;;
28174;SDS011;59417;44.788;10.334;2023-05-10T06:38:24;7.78;;;6.35;;
28174;SDS011;59417;44.788;10.334;2023-05-10T06:40:50;8.05;;;6.80;;
28174;SDS011;59417;44.788;10.334;2023-05-10T06:43:16;9.02;;;6.80;;
28174;SDS011;59417;44.788;10.334;2023-05-10T06:45:42;8.63;;;7.05;;
28174;SDS011;59417;44.788;10.334;2023-05-10T06:48:08;8.18;;;7.13;;
28174;SDS011;59417;44.788;10.334;2023-05-10T06:50:33;6.72;;;6.03;;
28174;SDS011;59417;44.788;10.334;2023-05-10T06:52:59;6.75;;;6.05;;
28174;SDS011;59417;44.788;10.334;2023-05-10T06:55:26;7.30;;;5.85;;
28174;SDS011;59417;44.788;10.334;2023-05-10T06:57:52;6.63;;;5.95;;
28174;SDS011;59417;44.788;10.334;2023-05-10T07:00:19;6.00;;;5.28;;
28174;SDS011;59417;44.788;10.334;2023-05-10T07:02:45;6.00;;;5.40;;
28174;SDS011;59417;44.788;10.334;2023-05-10T07:05:11;6.72;;;6.10;;
28174;SDS011;59417;44.788;10.334;2023-05-10T07:07:37;6.57;;;5.45;;
28174;SDS011;59417;44.788;10.334;2023-05-10T07:10:03;6.88;;;5.75;;
28174;SDS011;59417;44.788;10.334;2023-05-10T07:12:29;6.72;;;5.60;;
28174;SDS011;59417;44.788;10.334;2023-05-10T07:14:55;6.38;;;5.75;;
28174;SDS011;59417;44.788;10.334;2023-05-10T07:17:20;8.38;;;5.53;;
28174;SDS011;59417;44.788;10.334;2023-05-10T07:19:46;6.97;;;5.18;;
28174;SDS011;59417;44.788;10.334;2023-05-10T07:22:12;8.20;;;5.82;;
28174;SDS011;59417;44.788;10.334;2023-05-10T07:24:38;6.30;;;5.45;;
28174;SDS011;59417;44.788;10.334;2023-05-10T07:27:03;8.25;;;5.38;;
28174;SDS011;59417;44.788;10.334;2023-05-10T07:29:29;7.85;;;5.55;;
28174;SDS011;59417;44.788;10.334;2023-05-10T07:31:55;7.45;;;5.28;;
28174;SDS011;59417;44.788;10.334;2023-05-10T07:34:21;6.32;;;5.43;;
28174;SDS011;59417;44.788;10.334;2023-05-10T07:36:46;8.00;;;5.72;;
28174;SDS011;59417;44.788;10.334;2023-05-10T07:39:12;7.63;;;5.80;;
28174;SDS011;59417;44.788;10.334;2023-05-10T07:41:38;8.05;;;5.78;;
28174;SDS011;59417;44.788;10.334;2023-05-10T07:44:04;8.52;;;5.90;;
28174;SDS011;59417;44.788;10.334;2023-05-10T07:46:31;7.07;;;5.25;;
28174;SDS011;59417;44.788;10.334;2023-05-10T07:48:57;6.63;;;5.60;;
28174;SDS011;59417;44.788;10.334;2023-05-10T07:51:22;8.30;;;6.00;;
28174;SDS011;59417;44.788;10.334;2023-05-10T07:53:48;9.45;;;5.85;;
28174;SDS011;59417;44.788;10.334;2023-05-10T07:56:23;8.57;;;6.13;;
28174;SDS011;59417;44.788;10.334;2023-05-10T07:58:52;9.60;;;6.03;;
28174;SDS011;59417;44.788;10.334;2023-05-10T08:01:19;6.45;;;5.65;;
28174;SDS011;59417;44.788;10.334;2023-05-10T08:03:45;8.13;;;5.57;;
28174;SDS011;59417;44.788;10.334;2023-05-10T08:06:10;8.45;;;5.88;;
28174;SDS011;59417;44.788;10.334;2023-05-10T08:08:36;8.88;;;5.68;;
28174;SDS011;59417;44.788;10.334;2023-05-10T08:11:02;7.65;;;5.63;;
28174;SDS011;59417;44.788;10.334;2023-05-10T08:13:28;8.18;;;5.75;;
28174;SDS011;59417;44.788;10.334;2023-05-10T08:15:54;9.90;;;5.90;;
28174;SDS011;59417;44.788;10.334;2023-05-10T08:18:20;7.13;;;5.40;;
28174;SDS011;59417;44.788;10.334;2023-05-10T08:20:46;7.45;;;5.15;;
28174;SDS011;59417;44.788;10.334;2023-05-10T08:23:12;7.68;;;5.30;;
28174;SDS011;59417;44.788;10.334;2023-05-10T08:25:38;8.60;;;6.60;;
28174;SDS011;59417;44.788;10.334;2023-05-10T08:28:04;8.40;;;6.00;;
28174;SDS011;59417;44.788;10.334;2023-05-10T08:30:30;7.03;;;6.07;;
28174;SDS011;59417;44.788;10.334;2023-05-10T08:32:55;9.63;;;6.68;;
28174;SDS011;59417;44.788;10.334;2023-05-10T08:35:21;8.32;;;6.57;;
28174;SDS011;59417;44.788;10.334;2023-05-10T08:37:46;7.50;;;6.70;;
28174;SDS011;59417;44.788;10.334;2023-05-10T08:40:12;9.07;;;7.15;;
28174;SDS011;59417;44.788;10.334;2023-05-10T08:42:42;7.40;;;5.68;;
28174;SDS011;59417;44.788;10.334;2023-05-10T08:45:12;9.63;;;6.10;;
28174;SDS011;59417;44.788;10.334;2023-05-10T08:47:40;9.30;;;6.43;;
28174;SDS011;59417;44.788;10.334;2023-05-10T08:50:06;9.77;;;5.75;;
28174;SDS011;59417;44.788;10.334;2023-05-10T08:52:32;5.82;;;5.28;;
28174;SDS011;59417;44.788;10.334;2023-05-10T08:54:59;7.13;;;5.38;;
28174;SDS011;59417;44.788;10.334;2023-05-10T08:57:25;6.85;;;5.88;;
28174;SDS011;59417;44.788;10.334;2023-05-10T08:59:51;7.20;;;6.03;;
28174;SDS011;59417;44.788;10.334;2023-05-10T09:02:17;7.93;;;6.15;;
28174;SDS011;59417;44.788;10.334;2023-05-10T09:04:44;8.05;;;6.20;;
28174;SDS011;59417;44.788;10.334;2023-05-10T09:07:10;8.20;;;5.45;;
28174;SDS011;59417;44.788;10.334;2023-05-10T09:09:36;7.65;;;5.93;;
28174;SDS011;59417;44.788;10.334;2023-05-10T09:12:02;7.13;;;5.22;;
28174;SDS011;59417;44.788;10.334;2023-05-10T09:14:28;7.65;;;5.40;;
28174;SDS011;59417;44.788;10.334;2023-05-10T09:16:54;6.30;;;5.70;;
28174;SDS011;59417;44.788;10.334;2023-05-10T09:19:20;8.55;;;5.65;;
28174;SDS011;59417;44.788;10.334;2023-05-10T09:21:46;7.40;;;5.18;;
28174;SDS011;59417;44.788;10.334;2023-05-10T09:24:11;7.45;;;5.72;;
28174;SDS011;59417;44.788;10.334;2023-05-10T09:26:45;5.78;;;5.05;;
28174;SDS011;59417;44.788;10.334;2023-05-10T09:29:13;8.63;;;5.13;;
28174;SDS011;59417;44.788;10.334;2023-05-10T09:32:13;5.57;;;4.90;;
28174;SDS011;59417;44.788;10.334;2023-05-10T09:34:31;6.82;;;4.85;;
28174;SDS011;59417;44.788;10.334;2023-05-10T09:37:00;7.53;;;4.85;;
28174;SDS011;59417;44.788;10.334;2023-05-10T09:39:45;6.00;;;5.22;;
28174;SDS011;59417;44.788;10.334;2023-05-10T09:42:11;6.30;;;4.95;;
28174;SDS011;59417;44.788;10.334;2023-05-10T09:44:37;5.45;;;4.80;;
28174;SDS011;59417;44.788;10.334;2023-05-10T09:47:03;8.68;;;5.20;;
28174;SDS011;59417;44.788;10.334;2023-05-10T09:49:29;6.68;;;4.70;;
28174;SDS011;59417;44.788;10.334;2023-05-10T09:52:03;6.22;;;4.68;;
28174;SDS011;59417;44.788;10.334;2023-05-10T09:54:30;6.10;;;4.63;;
28174;SDS011;59417;44.788;10.334;2023-05-10T09:56:57;5.22;;;4.40;;
28174;SDS011;59417;44.788;10.334;2023-05-10T09:59:24;6.07;;;5.45;;
28174;SDS011;59417;44.788;10.334;2023-05-10T10:01:51;6.63;;;4.97;;
28174;SDS011;59417;44.788;10.334;2023-05-10T10:04:18;7.95;;;4.90;;
28174;SDS011;59417;44.788;10.334;2023-05-10T10:06:46;6.68;;;5.03;;
28174;SDS011;59417;44.788;10.334;2023-05-10T10:09:24;5.47;;;4.70;;
28174;SDS011;59417;44.788;10.334;2023-05-10T10:11:50;6.57;;;4.25;;
28174;SDS011;59417;44.788;10.334;2023-05-10T10:14:18;5.35;;;4.68;;
28174;SDS011;59417;44.788;10.334;2023-05-10T10:16:43;5.75;;;4.80;;
28174;SDS011;59417;44.788;10.334;2023-05-10T10:19:10;7.05;;;4.60;;
28174;SDS011;59417;44.788;10.334;2023-05-10T10:21:35;5.18;;;4.47;;
28174;SDS011;59417;44.788;10.334;2023-05-10T10:24:01;8.18;;;5.50;;
28174;SDS011;59417;44.788;10.334;2023-05-10T10:26:27;5.60;;;4.55;;
28174;SDS011;59417;44.788;10.334;2023-05-10T10:31:41;4.50;;;4.07;;
28174;SDS011;59417;44.788;10.334;2023-05-10T10:39:19;4.97;;;4.40;;
28174;SDS011;59417;44.788;10.334;2023-05-10T10:49:31;6.07;;;4.65;;
28174;SDS011;59417;44.788;10.334;2023-05-10T10:55:07;5.47;;;4.90;;
28174;SDS011;59417;44.788;10.334;2023-05-10T11:05:34;7.20;;;4.47;;
28174;SDS011;59417;44.788;10.334;2023-05-10T11:08:09;5.82;;;4.22;;
28174;SDS011;59417;44.788;10.334;2023-05-10T11:13:21;6.63;;;5.05;;
28174;SDS011;59417;44.788;10.334;2023-05-10T11:15:56;6.35;;;5.28;;
28174;SDS011;59417;44.788;10.334;2023-05-10T11:18:24;6.82;;;5.47;;
28174;SDS011;59417;44.788;10.334;2023-05-10T11:20:59;5.88;;;5.03;;
28174;SDS011;59417;44.788;10.334;2023-05-10T11:23:32;7.45;;;5.03;;
28174;SDS011;59417;44.788;10.334;2023-05-10T11:26:10;5.20;;;4.40;;
28174;SDS011;59417;44.788;10.334;2023-05-10T11:28:43;5.88;;;4.70;;
28174;SDS011;59417;44.788;10.334;2023-05-10T11:31:10;6.95;;;4.63;;
28174;SDS011;59417;44.788;10.334;2023-05-10T11:33:45;5.10;;;4.55;;
28174;SDS011;59417;44.788;10.334;2023-05-10T11:36:17;5.40;;;4.18;;
28174;SDS011;59417;44.788;10.334;2023-05-10T11:38:59;7.97;;;5.20;;
28174;SDS011;59417;44.788;10.334;2023-05-10T11:41:26;5.65;;;4.15;;
28174;SDS011;59417;44.788;10.334;2023-05-10T11:43:53;4.93;;;4.43;;
28174;SDS011;59417;44.788;10.334;2023-05-10T11:46:20;5.78;;;4.68;;
28174;SDS011;59417;44.788;10.334;2023-05-10T11:48:49;5.85;;;4.80;;
28174;SDS011;59417;44.788;10.334;2023-05-10T11:51:19;5.93;;;4.75;;
28174;SDS011;59417;44.788;10.334;2023-05-10T11:53:46;5.75;;;4.57;;
28174;SDS011;59417;44.788;10.334;2023-05-10T11:56:11;7.47;;;5.05;;
28174;SDS011;59417;44.788;10.334;2023-05-10T11:58:38;6.43;;;4.85;;
28174;SDS011;59417;44.788;10.334;2023-05-10T12:01:05;5.10;;;4.60;;
28174;SDS011;59417;44.788;10.334;2023-05-10T12:03:32;5.88;;;4.70;;
28174;SDS011;59417;44.788;10.334;2023-05-10T12:05:58;8.55;;;5.05;;
28174;SDS011;59417;44.788;10.334;2023-05-10T12:08:26;6.32;;;5.25;;
28174;SDS011;59417;44.788;10.334;2023-05-10T12:10:53;8.05;;;4.80;;
28174;SDS011;59417;44.788;10.334;2023-05-10T12:13:29;5.60;;;4.90;;
28174;SDS011;59417;44.788;10.334;2023-05-10T12:15:57;5.90;;;4.38;;
28174;SDS011;59417;44.788;10.334;2023-05-10T12:18:23;5.88;;;5.18;;
28174;SDS011;59417;44.788;10.334;2023-05-10T12:20:52;9.20;;;5.15;;
28174;SDS011;59417;44.788;10.334;2023-05-10T12:23:21;6.68;;;5.20;;
28174;SDS011;59417;44.788;10.334;2023-05-10T12:25:46;6.25;;;4.85;;
28174;SDS011;59417;44.788;10.334;2023-05-10T12:28:12;8.05;;;5.05;;
28174;SDS011;59417;44.788;10.334;2023-05-10T12:30:38;5.97;;;5.18;;
28174;SDS011;59417;44.788;10.334;2023-05-10T12:33:11;6.78;;;5.55;;
28174;SDS011;59417;44.788;10.334;2023-05-10T12:38:27;8.40;;;5.18;;
28174;SDS011;59417;44.788;10.334;2023-05-10T12:41:04;6.28;;;4.32;;
28174;SDS011;59417;44.788;10.334;2023-05-10T12:43:31;5.63;;;5.05;;
28174;SDS011;59417;44.788;10.334;2023-05-10T12:45:58;7.53;;;5.88;;
28174;SDS011;59417;44.788;10.334;2023-05-10T12:48:29;6.03;;;5.10;;
28174;SDS011;59417;44.788;10.334;2023-05-10T12:50:56;6.07;;;5.15;;
28174;SDS011;59417;44.788;10.334;2023-05-10T12:53:21;6.95;;;5.03;;
28174;SDS011;59417;44.788;10.334;2023-05-10T12:55:47;5.88;;;4.40;;
28174;SDS011;59417;44.788;10.334;2023-05-10T12:58:13;5.75;;;4.82;;
28174;SDS011;59417;44.788;10.334;2023-05-10T13:00:39;5.75;;;4.60;;
28174;SDS011;59417;44.788;10.334;2023-05-10T13:03:05;5.60;;;4.60;;
28174;SDS011;59417;44.788;10.334;2023-05-10T13:05:31;5.25;;;4.55;;
28174;SDS011;59417;44.788;10.334;2023-05-10T13:07:58;6.47;;;5.10;;
28174;SDS011;59417;44.788;10.334;2023-05-10T13:10:32;5.32;;;4.25;;
28174;SDS011;59417;44.788;10.334;2023-05-10T13:12:58;6.85;;;4.85;;
28174;SDS011;59417;44.788;10.334;2023-05-10T13:15:24;5.20;;;4.38;;
28174;SDS011;59417;44.788;10.334;2023-05-10T13:17:50;7.18;;;4.95;;
28174;SDS011;59417;44.788;10.334;2023-05-10T13:20:16;4.82;;;4.40;;
28174;SDS011;59417;44.788;10.334;2023-05-10T13:22:45;7.15;;;4.75;;
28174;SDS011;59417;44.788;10.334;2023-05-10T13:25:11;5.18;;;4.65;;
28174;SDS011;59417;44.788;10.334;2023-05-10T13:27:37;4.82;;;4.32;;
28174;SDS011;59417;44.788;10.334;2023-05-10T13:30:03;5.22;;;4.43;;
28174;SDS011;59417;44.788;10.334;2023-05-10T13:32:29;4.93;;;4.40;;
28174;SDS011;59417;44.788;10.334;2023-05-10T13:34:55;6.07;;;4.30;;
28174;SDS011;59417;44.788;10.334;2023-05-10T13:37:21;4.70;;;4.20;;
28174;SDS011;59417;44.788;10.334;2023-05-10T13:39:47;5.30;;;4.80;;
28174;SDS011;59417;44.788;10.334;2023-05-10T13:42:13;4.93;;;4.43;;
28174;SDS011;59417;44.788;10.334;2023-05-10T13:44:38;5.68;;;4.20;;
28174;SDS011;59417;44.788;10.334;2023-05-10T13:47:04;4.60;;;3.47;;
28174;SDS011;59417;44.788;10.334;2023-05-10T13:49:30;5.38;;;4.15;;
28174;SDS011;59417;44.788;10.334;2023-05-10T13:51:56;5.20;;;4.70;;
28174;SDS011;59417;44.788;10.334;2023-05-10T13:54:21;7.13;;;4.47;;
28174;SDS011;59417;44.788;10.334;2023-05-10T13:56:48;4.50;;;4.00;;
28174;SDS011;59417;44.788;10.334;2023-05-10T13:59:14;4.97;;;4.47;;
28174;SDS011;59417;44.788;10.334;2023-05-10T14:01:40;4.35;;;3.95;;
28174;SDS011;59417;44.788;10.334;2023-05-10T14:04:06;5.63;;;4.43;;
28174;SDS011;59417;44.788;10.334;2023-05-10T14:06:35;4.90;;;4.30;;
28174;SDS011;59417;44.788;10.334;2023-05-10T14:09:01;7.40;;;5.13;;
28174;SDS011;59417;44.788;10.334;2023-05-10T14:11:27;4.65;;;4.15;;
28174;SDS011;59417;44.788;10.334;2023-05-10T14:13:53;5.10;;;4.53;;
28174;SDS011;59417;44.788;10.334;2023-05-10T14:16:19;9.25;;;5.03;;
28174;SDS011;59417;44.788;10.334;2023-05-10T14:18:45;6.15;;;4.82;;
28174;SDS011;59417;44.788;10.334;2023-05-10T14:21:11;5.32;;;4.80;;
28174;SDS011;59417;44.788;10.334;2023-05-10T14:23:37;5.75;;;5.07;;
28174;SDS011;59417;44.788;10.334;2023-05-10T14:26:02;5.72;;;5.15;;
28174;SDS011;59417;44.788;10.334;2023-05-10T14:28:28;5.47;;;4.97;;
28174;SDS011;59417;44.788;10.334;2023-05-10T14:30:54;9.55;;;5.68;;
28174;SDS011;59417;44.788;10.334;2023-05-10T14:33:19;6.55;;;5.63;;
28174;SDS011;59417;44.788;10.334;2023-05-10T14:35:46;7.13;;;5.78;;
28174;SDS011;59417;44.788;10.334;2023-05-10T14:38:13;5.38;;;4.85;;
28174;SDS011;59417;44.788;10.334;2023-05-10T14:40:39;6.95;;;5.93;;
28174;SDS011;59417;44.788;10.334;2023-05-10T14:43:04;10.35;;;5.95;;
28174;SDS011;59417;44.788;10.334;2023-05-10T14:45:30;9.07;;;5.75;;
28174;SDS011;59417;44.788;10.334;2023-05-10T14:47:56;8.15;;;5.63;;
28174;SDS011;59417;44.788;10.334;2023-05-10T14:50:22;7.50;;;5.35;;
28174;SDS011;59417;44.788;10.334;2023-05-10T14:52:48;6.93;;;5.45;;
28174;SDS011;59417;44.788;10.334;2023-05-10T14:55:14;6.30;;;5.47;;
28174;SDS011;59417;44.788;10.334;2023-05-10T14:57:40;8.07;;;5.97;;
28174;SDS011;59417;44.788;10.334;2023-05-10T15:00:06;5.82;;;5.18;;
28174;SDS011;59417;44.788;10.334;2023-05-10T15:02:32;7.97;;;6.25;;
28174;SDS011;59417;44.788;10.334;2023-05-10T15:04:58;10.10;;;6.18;;
28174;SDS011;59417;44.788;10.334;2023-05-10T15:07:24;8.30;;;5.80;;
28174;SDS011;59417;44.788;10.334;2023-05-10T15:09:50;6.65;;;5.85;;
28174;SDS011;59417;44.788;10.334;2023-05-10T15:12:19;8.40;;;6.20;;
28174;SDS011;59417;44.788;10.334;2023-05-10T15:14:45;6.63;;;5.47;;
28174;SDS011;59417;44.788;10.334;2023-05-10T15:17:11;6.13;;;5.43;;
28174;SDS011;59417;44.788;10.334;2023-05-10T15:19:37;8.60;;;6.35;;
28174;SDS011;59417;44.788;10.334;2023-05-10T15:22:03;6.07;;;5.47;;
28174;SDS011;59417;44.788;10.334;2023-05-10T15:24:30;9.43;;;6.63;;
28174;SDS011;59417;44.788;10.334;2023-05-10T15:26:56;7.50;;;6.68;;
28174;SDS011;59417;44.788;10.334;2023-05-10T15:29:21;7.57;;;6.43;;
28174;SDS011;59417;44.788;10.334;2023-05-10T15:31:48;8.93;;;7.82;;